Last 30 Days

Alpine-Summit 8643' (Ward Mt.)

Daily Data | America/Los_Angeles
as of 1/15/21 1:19 PM PST
Date Daily Max Temp (°F) Time of Max Temp Daily Min Temp (°F) Time of Min Temp Wind Spd (mph) Daily Max Wind (mph) Max RH (%) Min RH (%) Wet Bulb (°F)
1/14/21 46.5 1525 36.0 0130 22.6 45.6 51 13 31.0
1/13/21 40.6 1435 33.4 0801 26.9 58.0 100 22 34.0
1/12/21 38.5 1318 28.7 1946 37.6 63.1 100 32 26.8
1/11/21 46.7 1523 32.0 2333 12.9 33.5 58 7 27.8
1/10/21 36.7 0128 27.8 0733 22.2 41.8 96 27 28.1
1/9/21 38.6 1512 25.1 0341 17.0 38.9 64 9 22.6
1/8/21 33.0 0018 21.1 1959 36.6 89.3 98 16 24.4
1/7/21 40.3 1236 24.1 0410 14.3 35.2 62 13 22.8
1/6/21 30.1 1423 22.9 0513 36.1 81.4 98 56 24.2
1/5/21 29.6 1552 18.0 0537 17.7 39.8 97 95 22.9
1/4/21 32.0 1356 20.2 2359 69.9 191.3 100 92 26.6
1/3/21 32.4 1248 24.1 0803 29.3 83.2 100 93 27.4
1/2/21 31.8 1359 22.3 0001 41.0 69.4 100 79 27.3
1/1/21 39.5 1320 20.3 0248 35.6 69.0 97 20 23.8
12/31/20 26.7 1335 19.6 0444 41.3 83.5 97 95 22.1
12/30/20 28.8 1455 19.9 2031 34.1 95.7 96 43 21.4
12/29/20 27.6 1427 14.4 0759 30.3 65.1 98 93 18.7
12/28/20 29.4 1448 17.6 2357 31.0 47.3 100 95 20.5
12/27/20 27.9 1514 17.9 0021 30.4 52.0 98 95 21.2
12/26/20 26.2 1435 18.2 2350 44.0 118.1 98 95 22.4
12/25/20 32.0 1215 25.8 2335 51.9 103.7 98 22 25.5
12/24/20 39.5 1408 28.4 2358 23.4 50.0 45 11 23.9
12/23/20 39.5 2258 17.2 0251 37.8 83.2 90 9 21.1
12/22/20 39.6 1512 19.7 2249 26.7 102.9 97 21 23.5
12/21/20 43.5 0457 28.0 2359 27.9 76.9 47 9 27.6
12/20/20 49.7 1536 38.1 0201 12.3 24.3 28 11 28.5
12/19/20 42.4 1502 30.8 0425 20.0 37.8 57 10 26.6
12/18/20 35.2 2253 16.0 0326 35.1 79.2 96 27 22.9
12/17/20 30.7 1410 16.6 2331 34.9 84.9 97 53 23.2
12/16/20 37.7 1459 26.7 0022 23.6 62.3 98 47 27.6
Max 49.7 - 38.1 - 69.9 191.3 100 95 34.0
Avg - - - - 30.8 - - - 24.9
Min 26.2 - 14.4 - 12.3 24.3 28 7 18.7